sensor_id;sensor_type;location;lat;lon;timestamp;temperature;humidity
19050;DHT22;9657;45.940;12.840;2023-02-01T00:02:26;9.70;70.90
19050;DHT22;9657;45.940;12.840;2023-02-01T00:04:53;9.70;70.90
19050;DHT22;9657;45.940;12.840;2023-02-01T00:07:20;9.70;70.90
19050;DHT22;9657;45.940;12.840;2023-02-01T00:09:47;9.70;70.90
19050;DHT22;9657;45.940;12.840;2023-02-01T00:12:15;9.70;70.90
19050;DHT22;9657;45.940;12.840;2023-02-01T00:14:42;9.70;70.90
19050;DHT22;9657;45.940;12.840;2023-02-01T00:17:10;9.70;70.80
19050;DHT22;9657;45.940;12.840;2023-02-01T00:19:37;9.70;70.60
19050;DHT22;9657;45.940;12.840;2023-02-01T00:22:04;9.70;70.90
19050;DHT22;9657;45.940;12.840;2023-02-01T00:24:31;9.70;70.80
19050;DHT22;9657;45.940;12.840;2023-02-01T00:26:58;9.60;70.70
19050;DHT22;9657;45.940;12.840;2023-02-01T00:29:26;9.70;70.80
19050;DHT22;9657;45.940;12.840;2023-02-01T00:31:53;9.60;70.50
19050;DHT22;9657;45.940;12.840;2023-02-01T00:34:20;9.70;70.60
19050;DHT22;9657;45.940;12.840;2023-02-01T00:36:48;9.60;70.50
19050;DHT22;9657;45.940;12.840;2023-02-01T00:39:15;9.60;70.60
19050;DHT22;9657;45.940;12.840;2023-02-01T00:41:42;9.70;70.70
19050;DHT22;9657;45.940;12.840;2023-02-01T00:44:10;9.60;70.60
19050;DHT22;9657;45.940;12.840;2023-02-01T00:46:38;9.60;70.50
19050;DHT22;9657;45.940;12.840;2023-02-01T00:49:05;9.60;70.60
19050;DHT22;9657;45.940;12.840;2023-02-01T00:51:35;9.60;70.50
19050;DHT22;9657;45.940;12.840;2023-02-01T00:54:02;9.60;70.50
19050;DHT22;9657;45.940;12.840;2023-02-01T00:56:29;9.60;70.50
19050;DHT22;9657;45.940;12.840;2023-02-01T00:58:57;9.60;70.50
19050;DHT22;9657;45.940;12.840;2023-02-01T01:01:25;9.60;70.50
19050;DHT22;9657;45.940;12.840;2023-02-01T01:03:55;9.60;70.40
19050;DHT22;9657;45.940;12.840;2023-02-01T01:06:24;9.60;70.40
19050;DHT22;9657;45.940;12.840;2023-02-01T01:08:53;9.60;70.40
19050;DHT22;9657;45.940;12.840;2023-02-01T01:11:22;9.60;70.40
19050;DHT22;9657;45.940;12.840;2023-02-01T01:13:50;9.60;70.30
19050;DHT22;9657;45.940;12.840;2023-02-01T01:16:18;9.60;70.50
19050;DHT22;9657;45.940;12.840;2023-02-01T01:18:46;9.60;70.30
19050;DHT22;9657;45.940;12.840;2023-02-01T01:21:16;9.60;70.30
19050;DHT22;9657;45.940;12.840;2023-02-01T01:23:44;9.60;70.30
19050;DHT22;9657;45.940;12.840;2023-02-01T01:26:14;9.60;70.30
19050;DHT22;9657;45.940;12.840;2023-02-01T01:28:42;9.60;70.20
19050;DHT22;9657;45.940;12.840;2023-02-01T01:31:09;9.60;70.30
19050;DHT22;9657;45.940;12.840;2023-02-01T01:33:37;9.60;70.30
19050;DHT22;9657;45.940;12.840;2023-02-01T01:36:05;9.60;70.20
19050;DHT22;9657;45.940;12.840;2023-02-01T01:38:35;9.50;70.10
19050;DHT22;9657;45.940;12.840;2023-02-01T01:41:02;9.60;70.10
19050;DHT22;9657;45.940;12.840;2023-02-01T01:43:46;9.60;70.30
19050;DHT22;9657;45.940;12.840;2023-02-01T01:46:16;9.50;70.10
19050;DHT22;9657;45.940;12.840;2023-02-01T01:48:43;9.50;70.10
19050;DHT22;9657;45.940;12.840;2023-02-01T01:51:12;9.60;70.20
19050;DHT22;9657;45.940;12.840;2023-02-01T01:53:46;9.50;70.20
19050;DHT22;9657;45.940;12.840;2023-02-01T01:56:14;9.50;70.20
19050;DHT22;9657;45.940;12.840;2023-02-01T01:58:42;9.50;70.10
19050;DHT22;9657;45.940;12.840;2023-02-01T02:03:45;9.50;71.00
19050;DHT22;9657;45.940;12.840;2023-02-01T02:06:18;9.50;70.10
19050;DHT22;9657;45.940;12.840;2023-02-01T02:08:49;9.50;70.10
19050;DHT22;9657;45.940;12.840;2023-02-01T02:11:17;9.50;70.10
19050;DHT22;9657;45.940;12.840;2023-02-01T02:13:48;9.50;70.10
19050;DHT22;9657;45.940;12.840;2023-02-01T02:16:40;9.50;70.10
19050;DHT22;9657;45.940;12.840;2023-02-01T02:19:32;9.50;70.10
19050;DHT22;9657;45.940;12.840;2023-02-01T02:22:28;9.50;70.20
19050;DHT22;9657;45.940;12.840;2023-02-01T02:31:25;9.50;70.10
19050;DHT22;9657;45.940;12.840;2023-02-01T02:34:12;9.50;70.20
19050;DHT22;9657;45.940;12.840;2023-02-01T02:36:49;9.50;70.20
19050;DHT22;9657;45.940;12.840;2023-02-01T02:39:23;9.50;70.20
19050;DHT22;9657;45.940;12.840;2023-02-01T02:41:57;9.50;70.20
19050;DHT22;9657;45.940;12.840;2023-02-01T02:44:46;9.50;70.20
19050;DHT22;9657;45.940;12.840;2023-02-01T02:47:39;9.50;70.10
19050;DHT22;9657;45.940;12.840;2023-02-01T02:50:20;9.50;70.10
19050;DHT22;9657;45.940;12.840;2023-02-01T02:53:11;9.50;70.20
19050;DHT22;9657;45.940;12.840;2023-02-01T02:55:59;9.50;70.20
19050;DHT22;9657;45.940;12.840;2023-02-01T02:58:44;9.50;70.20
19050;DHT22;9657;45.940;12.840;2023-02-01T03:01:31;9.50;70.00
19050;DHT22;9657;45.940;12.840;2023-02-01T03:04:16;9.50;70.00
19050;DHT22;9657;45.940;12.840;2023-02-01T03:06:46;9.40;70.00
19050;DHT22;9657;45.940;12.840;2023-02-01T03:09:19;9.40;70.00
19050;DHT22;9657;45.940;12.840;2023-02-01T03:11:49;9.40;70.00
19050;DHT22;9657;45.940;12.840;2023-02-01T03:14:40;9.40;70.00
19050;DHT22;9657;45.940;12.840;2023-02-01T03:17:14;9.40;70.00
19050;DHT22;9657;45.940;12.840;2023-02-01T03:19:46;9.40;70.00
19050;DHT22;9657;45.940;12.840;2023-02-01T03:22:18;9.40;70.00
19050;DHT22;9657;45.940;12.840;2023-02-01T03:24:49;9.40;69.90
19050;DHT22;9657;45.940;12.840;2023-02-01T03:27:21;9.40;69.80
19050;DHT22;9657;45.940;12.840;2023-02-01T03:29:53;9.40;70.00
19050;DHT22;9657;45.940;12.840;2023-02-01T03:32:21;9.40;70.10
19050;DHT22;9657;45.940;12.840;2023-02-01T03:34:50;9.40;69.90
19050;DHT22;9657;45.940;12.840;2023-02-01T03:37:23;9.40;70.00
19050;DHT22;9657;45.940;12.840;2023-02-01T03:39:56;9.40;70.00
19050;DHT22;9657;45.940;12.840;2023-02-01T03:42:28;9.40;69.80
19050;DHT22;9657;45.940;12.840;2023-02-01T03:45:03;9.40;69.80
19050;DHT22;9657;45.940;12.840;2023-02-01T03:47:36;9.40;69.80
19050;DHT22;9657;45.940;12.840;2023-02-01T03:50:06;9.40;69.80
19050;DHT22;9657;45.940;12.840;2023-02-01T03:52:39;9.40;70.00
19050;DHT22;9657;45.940;12.840;2023-02-01T03:55:08;9.40;70.00
19050;DHT22;9657;45.940;12.840;2023-02-01T03:57:41;9.40;69.80
19050;DHT22;9657;45.940;12.840;2023-02-01T04:00:16;9.40;70.00
19050;DHT22;9657;45.940;12.840;2023-02-01T04:02:43;9.40;69.80
19050;DHT22;9657;45.940;12.840;2023-02-01T04:05:10;9.40;69.90
19050;DHT22;9657;45.940;12.840;2023-02-01T04:07:39;9.40;69.80
19050;DHT22;9657;45.940;12.840;2023-02-01T04:10:07;9.40;69.80
19050;DHT22;9657;45.940;12.840;2023-02-01T04:12:34;9.40;69.80
19050;DHT22;9657;45.940;12.840;2023-02-01T04:15:02;9.40;69.80
19050;DHT22;9657;45.940;12.840;2023-02-01T04:17:29;9.40;69.80
19050;DHT22;9657;45.940;12.840;2023-02-01T04:19:56;9.40;69.80
19050;DHT22;9657;45.940;12.840;2023-02-01T04:22:23;9.40;69.70
19050;DHT22;9657;45.940;12.840;2023-02-01T04:24:52;9.40;69.80
19050;DHT22;9657;45.940;12.840;2023-02-01T04:27:19;9.40;69.80
19050;DHT22;9657;45.940;12.840;2023-02-01T04:29:46;9.40;69.80
19050;DHT22;9657;45.940;12.840;2023-02-01T04:32:15;9.40;69.80
19050;DHT22;9657;45.940;12.840;2023-02-01T04:34:42;9.40;69.90
19050;DHT22;9657;45.940;12.840;2023-02-01T04:37:09;9.40;69.80
19050;DHT22;9657;45.940;12.840;2023-02-01T04:39:36;9.40;69.80
19050;DHT22;9657;45.940;12.840;2023-02-01T04:42:04;9.40;69.80
19050;DHT22;9657;45.940;12.840;2023-02-01T04:44:31;9.40;69.90
19050;DHT22;9657;45.940;12.840;2023-02-01T04:46:58;9.30;69.80
19050;DHT22;9657;45.940;12.840;2023-02-01T04:49:25;9.40;69.80
19050;DHT22;9657;45.940;12.840;2023-02-01T04:51:53;9.40;69.80
19050;DHT22;9657;45.940;12.840;2023-02-01T04:54:20;9.40;69.80
19050;DHT22;9657;45.940;12.840;2023-02-01T04:56:47;9.40;69.90
19050;DHT22;9657;45.940;12.840;2023-02-01T04:59:15;9.30;69.90
19050;DHT22;9657;45.940;12.840;2023-02-01T05:01:42;9.30;69.90
19050;DHT22;9657;45.940;12.840;2023-02-01T05:04:09;9.30;69.90
19050;DHT22;9657;45.940;12.840;2023-02-01T05:06:36;9.30;69.90
19050;DHT22;9657;45.940;12.840;2023-02-01T05:09:03;9.30;70.00
19050;DHT22;9657;45.940;12.840;2023-02-01T05:11:30;9.30;69.90
19050;DHT22;9657;45.940;12.840;2023-02-01T05:14:18;9.30;69.90
19050;DHT22;9657;45.940;12.840;2023-02-01T05:16:45;9.30;69.90
19050;DHT22;9657;45.940;12.840;2023-02-01T05:19:12;9.30;69.80
19050;DHT22;9657;45.940;12.840;2023-02-01T05:21:39;9.30;70.00
19050;DHT22;9657;45.940;12.840;2023-02-01T05:24:08;9.30;69.90
19050;DHT22;9657;45.940;12.840;2023-02-01T05:26:39;9.30;69.90
19050;DHT22;9657;45.940;12.840;2023-02-01T05:29:07;9.30;70.10
19050;DHT22;9657;45.940;12.840;2023-02-01T05:31:36;9.30;70.10
19050;DHT22;9657;45.940;12.840;2023-02-01T05:34:03;9.30;70.00
19050;DHT22;9657;45.940;12.840;2023-02-01T05:36:31;9.30;70.00
19050;DHT22;9657;45.940;12.840;2023-02-01T05:38:58;9.30;70.10
19050;DHT22;9657;45.940;12.840;2023-02-01T05:41:25;9.30;70.60
19050;DHT22;9657;45.940;12.840;2023-02-01T05:43:52;9.30;71.00
19050;DHT22;9657;45.940;12.840;2023-02-01T05:46:19;9.30;71.30
19050;DHT22;9657;45.940;12.840;2023-02-01T05:48:47;9.30;71.80
19050;DHT22;9657;45.940;12.840;2023-02-01T05:51:14;9.30;72.20
19050;DHT22;9657;45.940;12.840;2023-02-01T05:53:41;9.30;73.20
19050;DHT22;9657;45.940;12.840;2023-02-01T05:56:08;9.30;72.50
19050;DHT22;9657;45.940;12.840;2023-02-01T05:58:35;9.30;72.50
19050;DHT22;9657;45.940;12.840;2023-02-01T06:01:03;9.30;72.30
19050;DHT22;9657;45.940;12.840;2023-02-01T06:03:30;9.30;72.30
19050;DHT22;9657;45.940;12.840;2023-02-01T06:05:59;9.30;72.20
19050;DHT22;9657;45.940;12.840;2023-02-01T06:08:26;9.30;72.10
19050;DHT22;9657;45.940;12.840;2023-02-01T06:10:58;9.30;72.10
19050;DHT22;9657;45.940;12.840;2023-02-01T06:13:25;9.30;72.10
19050;DHT22;9657;45.940;12.840;2023-02-01T06:15:52;9.30;72.10
19050;DHT22;9657;45.940;12.840;2023-02-01T06:18:19;9.30;72.00
19050;DHT22;9657;45.940;12.840;2023-02-01T06:20:52;9.30;72.00
19050;DHT22;9657;45.940;12.840;2023-02-01T06:23:21;9.30;72.00
19050;DHT22;9657;45.940;12.840;2023-02-01T06:25:50;9.30;72.00
19050;DHT22;9657;45.940;12.840;2023-02-01T06:28:17;9.30;72.00
19050;DHT22;9657;45.940;12.840;2023-02-01T06:30:44;9.30;71.90
19050;DHT22;9657;45.940;12.840;2023-02-01T06:33:12;9.30;71.90
19050;DHT22;9657;45.940;12.840;2023-02-01T06:35:41;9.30;71.90
19050;DHT22;9657;45.940;12.840;2023-02-01T06:38:10;9.30;71.80
19050;DHT22;9657;45.940;12.840;2023-02-01T06:40:38;9.30;71.80
19050;DHT22;9657;45.940;12.840;2023-02-01T06:43:06;9.30;71.80
19050;DHT22;9657;45.940;12.840;2023-02-01T06:45:33;9.30;71.80
19050;DHT22;9657;45.940;12.840;2023-02-01T06:48:00;9.30;71.80
19050;DHT22;9657;45.940;12.840;2023-02-01T06:50:27;9.30;71.80
19050;DHT22;9657;45.940;12.840;2023-02-01T06:52:55;9.30;71.70
19050;DHT22;9657;45.940;12.840;2023-02-01T06:55:22;9.30;71.70
19050;DHT22;9657;45.940;12.840;2023-02-01T06:57:54;9.30;71.70
19050;DHT22;9657;45.940;12.840;2023-02-01T07:00:22;9.30;71.70
19050;DHT22;9657;45.940;12.840;2023-02-01T07:02:49;9.30;71.80
19050;DHT22;9657;45.940;12.840;2023-02-01T07:05:17;9.30;71.80
19050;DHT22;9657;45.940;12.840;2023-02-01T07:07:44;9.30;71.80
19050;DHT22;9657;45.940;12.840;2023-02-01T07:10:11;9.30;71.90
19050;DHT22;9657;45.940;12.840;2023-02-01T07:12:38;9.30;72.00
19050;DHT22;9657;45.940;12.840;2023-02-01T07:15:08;9.30;71.90
19050;DHT22;9657;45.940;12.840;2023-02-01T07:17:35;9.30;72.00
19050;DHT22;9657;45.940;12.840;2023-02-01T07:20:02;9.30;72.00
19050;DHT22;9657;45.940;12.840;2023-02-01T07:22:30;9.30;72.00
19050;DHT22;9657;45.940;12.840;2023-02-01T07:24:57;9.30;72.00
19050;DHT22;9657;45.940;12.840;2023-02-01T07:27:24;9.30;72.00
19050;DHT22;9657;45.940;12.840;2023-02-01T07:29:51;9.30;72.00
19050;DHT22;9657;45.940;12.840;2023-02-01T07:32:19;9.30;72.10
19050;DHT22;9657;45.940;12.840;2023-02-01T07:34:46;9.30;72.00
19050;DHT22;9657;45.940;12.840;2023-02-01T07:37:13;9.30;72.00
19050;DHT22;9657;45.940;12.840;2023-02-01T07:39:40;9.30;72.00
19050;DHT22;9657;45.940;12.840;2023-02-01T07:42:07;9.30;72.00
19050;DHT22;9657;45.940;12.840;2023-02-01T07:44:34;9.30;72.00
19050;DHT22;9657;45.940;12.840;2023-02-01T07:47:01;9.30;72.00
19050;DHT22;9657;45.940;12.840;2023-02-01T07:49:30;9.30;72.00
19050;DHT22;9657;45.940;12.840;2023-02-01T07:51:57;9.30;72.00
19050;DHT22;9657;45.940;12.840;2023-02-01T07:54:24;9.30;72.00
19050;DHT22;9657;45.940;12.840;2023-02-01T07:56:51;9.30;72.00
19050;DHT22;9657;45.940;12.840;2023-02-01T07:59:18;9.30;72.00
19050;DHT22;9657;45.940;12.840;2023-02-01T08:01:45;9.30;72.00
19050;DHT22;9657;45.940;12.840;2023-02-01T08:04:12;9.30;72.00
19050;DHT22;9657;45.940;12.840;2023-02-01T08:06:40;9.30;72.00
19050;DHT22;9657;45.940;12.840;2023-02-01T08:09:07;9.30;72.00
19050;DHT22;9657;45.940;12.840;2023-02-01T08:11:36;9.30;72.10
19050;DHT22;9657;45.940;12.840;2023-02-01T08:14:03;9.30;72.10
19050;DHT22;9657;45.940;12.840;2023-02-01T08:16:31;9.30;72.10
19050;DHT22;9657;45.940;12.840;2023-02-01T08:19:00;9.30;72.00
19050;DHT22;9657;45.940;12.840;2023-02-01T08:21:28;9.30;72.00
19050;DHT22;9657;45.940;12.840;2023-02-01T08:24:04;9.30;72.00
19050;DHT22;9657;45.940;12.840;2023-02-01T08:26:31;9.30;72.10
19050;DHT22;9657;45.940;12.840;2023-02-01T08:29:00;9.30;72.10
19050;DHT22;9657;45.940;12.840;2023-02-01T08:31:28;9.30;72.10
19050;DHT22;9657;45.940;12.840;2023-02-01T08:33:57;9.30;72.10
19050;DHT22;9657;45.940;12.840;2023-02-01T08:36:26;9.30;72.10
19050;DHT22;9657;45.940;12.840;2023-02-01T08:38:53;9.30;72.20
19050;DHT22;9657;45.940;12.840;2023-02-01T08:41:23;9.30;72.20
19050;DHT22;9657;45.940;12.840;2023-02-01T08:43:51;9.30;72.20
19050;DHT22;9657;45.940;12.840;2023-02-01T08:46:20;9.30;72.20
19050;DHT22;9657;45.940;12.840;2023-02-01T08:48:47;9.30;72.30
19050;DHT22;9657;45.940;12.840;2023-02-01T08:51:16;9.30;72.30
19050;DHT22;9657;45.940;12.840;2023-02-01T08:53:43;9.30;72.30
19050;DHT22;9657;45.940;12.840;2023-02-01T08:56:12;9.30;72.40
19050;DHT22;9657;45.940;12.840;2023-02-01T08:58:41;9.30;72.40
19050;DHT22;9657;45.940;12.840;2023-02-01T09:01:10;9.30;72.40
19050;DHT22;9657;45.940;12.840;2023-02-01T09:03:38;9.30;72.50
19050;DHT22;9657;45.940;12.840;2023-02-01T09:06:06;9.30;72.50
19050;DHT22;9657;45.940;12.840;2023-02-01T09:08:34;9.30;72.50
19050;DHT22;9657;45.940;12.840;2023-02-01T09:11:03;9.30;72.50
19050;DHT22;9657;45.940;12.840;2023-02-01T09:13:31;9.30;72.50
19050;DHT22;9657;45.940;12.840;2023-02-01T09:16:00;9.30;72.70
19050;DHT22;9657;45.940;12.840;2023-02-01T09:18:27;9.30;72.80
19050;DHT22;9657;45.940;12.840;2023-02-01T09:20:54;9.30;72.80
19050;DHT22;9657;45.940;12.840;2023-02-01T09:23:21;9.30;72.90
19050;DHT22;9657;45.940;12.840;2023-02-01T09:25:48;9.30;72.90
19050;DHT22;9657;45.940;12.840;2023-02-01T09:28:17;9.30;73.00
19050;DHT22;9657;45.940;12.840;2023-02-01T09:30:44;9.30;73.00
19050;DHT22;9657;45.940;12.840;2023-02-01T09:33:12;9.30;73.00
19050;DHT22;9657;45.940;12.840;2023-02-01T09:35:39;9.30;73.00
19050;DHT22;9657;45.940;12.840;2023-02-01T09:38:06;9.40;73.10
19050;DHT22;9657;45.940;12.840;2023-02-01T09:40:34;9.30;73.00
19050;DHT22;9657;45.940;12.840;2023-02-01T09:43:11;9.30;73.10
19050;DHT22;9657;45.940;12.840;2023-02-01T09:45:49;9.30;73.10
19050;DHT22;9657;45.940;12.840;2023-02-01T09:48:22;9.40;73.20
19050;DHT22;9657;45.940;12.840;2023-02-01T09:50:53;9.40;73.20
19050;DHT22;9657;45.940;12.840;2023-02-01T09:53:25;9.40;73.20
19050;DHT22;9657;45.940;12.840;2023-02-01T09:55:56;9.40;73.20
19050;DHT22;9657;45.940;12.840;2023-02-01T09:58:29;9.40;73.20
19050;DHT22;9657;45.940;12.840;2023-02-01T10:00:58;9.40;73.20
19050;DHT22;9657;45.940;12.840;2023-02-01T10:03:28;9.40;73.20
19050;DHT22;9657;45.940;12.840;2023-02-01T10:06:10;9.40;73.20
19050;DHT22;9657;45.940;12.840;2023-02-01T10:08:55;9.40;73.30
19050;DHT22;9657;45.940;12.840;2023-02-01T10:11:35;9.40;73.20
19050;DHT22;9657;45.940;12.840;2023-02-01T10:14:28;9.40;73.20
19050;DHT22;9657;45.940;12.840;2023-02-01T10:17:04;9.40;74.10
19050;DHT22;9657;45.940;12.840;2023-02-01T10:19:44;9.40;73.20
19050;DHT22;9657;45.940;12.840;2023-02-01T10:22:20;9.40;73.30
19050;DHT22;9657;45.940;12.840;2023-02-01T10:24:51;9.40;73.20
19050;DHT22;9657;45.940;12.840;2023-02-01T10:27:25;9.40;73.20
19050;DHT22;9657;45.940;12.840;2023-02-01T10:29:59;9.40;73.20
19050;DHT22;9657;45.940;12.840;2023-02-01T10:32:30;9.40;73.20
19050;DHT22;9657;45.940;12.840;2023-02-01T10:35:00;9.40;73.10
19050;DHT22;9657;45.940;12.840;2023-02-01T10:37:29;9.40;73.10
19050;DHT22;9657;45.940;12.840;2023-02-01T10:39:59;9.40;73.10
19050;DHT22;9657;45.940;12.840;2023-02-01T10:42:28;9.40;73.10
19050;DHT22;9657;45.940;12.840;2023-02-01T10:44:58;9.40;73.10
19050;DHT22;9657;45.940;12.840;2023-02-01T10:47:26;9.50;73.20
19050;DHT22;9657;45.940;12.840;2023-02-01T10:50:02;9.50;73.20
19050;DHT22;9657;45.940;12.840;2023-02-01T10:52:36;9.50;73.20
19050;DHT22;9657;45.940;12.840;2023-02-01T10:55:26;9.50;73.20
19050;DHT22;9657;45.940;12.840;2023-02-01T10:57:58;9.50;73.10
19050;DHT22;9657;45.940;12.840;2023-02-01T11:00:26;9.50;73.10
19050;DHT22;9657;45.940;12.840;2023-02-01T11:02:53;9.50;73.20
19050;DHT22;9657;45.940;12.840;2023-02-01T11:05:24;9.50;73.10
19050;DHT22;9657;45.940;12.840;2023-02-01T11:07:54;9.50;73.10
19050;DHT22;9657;45.940;12.840;2023-02-01T11:10:37;9.50;73.10
19050;DHT22;9657;45.940;12.840;2023-02-01T11:13:13;9.50;73.20
19050;DHT22;9657;45.940;12.840;2023-02-01T11:15:43;9.50;73.20
19050;DHT22;9657;45.940;12.840;2023-02-01T11:18:17;9.50;73.10
19050;DHT22;9657;45.940;12.840;2023-02-01T11:20:46;9.50;73.20
19050;DHT22;9657;45.940;12.840;2023-02-01T11:23:19;9.50;73.10
19050;DHT22;9657;45.940;12.840;2023-02-01T11:25:51;9.50;73.10
19050;DHT22;9657;45.940;12.840;2023-02-01T11:28:21;9.50;73.10
19050;DHT22;9657;45.940;12.840;2023-02-01T11:30:52;9.50;73.20
19050;DHT22;9657;45.940;12.840;2023-02-01T11:33:23;9.50;73.10
19050;DHT22;9657;45.940;12.840;2023-02-01T11:35:56;9.50;73.10
19050;DHT22;9657;45.940;12.840;2023-02-01T11:38:27;9.50;73.10
19050;DHT22;9657;45.940;12.840;2023-02-01T11:40:55;9.50;73.10
19050;DHT22;9657;45.940;12.840;2023-02-01T11:43:37;9.60;73.20
19050;DHT22;9657;45.940;12.840;2023-02-01T11:46:18;9.50;73.10
19050;DHT22;9657;45.940;12.840;2023-02-01T11:48:50;9.50;73.10
19050;DHT22;9657;45.940;12.840;2023-02-01T11:51:31;9.50;73.10
19050;DHT22;9657;45.940;12.840;2023-02-01T11:54:32;9.60;73.10
19050;DHT22;9657;45.940;12.840;2023-02-01T11:57:11;9.60;73.10
19050;DHT22;9657;45.940;12.840;2023-02-01T11:59:53;9.50;73.10
19050;DHT22;9657;45.940;12.840;2023-02-01T12:05:37;9.60;73.20
19050;DHT22;9657;45.940;12.840;2023-02-01T12:08:26;9.60;73.20
19050;DHT22;9657;45.940;12.840;2023-02-01T12:11:10;9.60;73.10
19050;DHT22;9657;45.940;12.840;2023-02-01T12:13:47;9.60;73.10
19050;DHT22;9657;45.940;12.840;2023-02-01T12:16:23;9.60;73.10
19050;DHT22;9657;45.940;12.840;2023-02-01T12:19:05;9.60;73.10
19050;DHT22;9657;45.940;12.840;2023-02-01T12:21:58;9.60;73.10
19050;DHT22;9657;45.940;12.840;2023-02-01T12:24:42;9.60;73.20
19050;DHT22;9657;45.940;12.840;2023-02-01T12:27:38;9.60;73.20
19050;DHT22;9657;45.940;12.840;2023-02-01T12:30:25;9.60;73.20
19050;DHT22;9657;45.940;12.840;2023-02-01T12:33:03;9.60;73.10
19050;DHT22;9657;45.940;12.840;2023-02-01T12:35:50;9.60;73.10
19050;DHT22;9657;45.940;12.840;2023-02-01T12:38:39;9.60;73.10
19050;DHT22;9657;45.940;12.840;2023-02-01T12:41:36;9.60;73.10
19050;DHT22;9657;45.940;12.840;2023-02-01T12:44:11;9.60;73.20
19050;DHT22;9657;45.940;12.840;2023-02-01T12:46:43;9.60;73.20
19050;DHT22;9657;45.940;12.840;2023-02-01T12:49:13;9.60;73.10
19050;DHT22;9657;45.940;12.840;2023-02-01T12:51:44;9.60;73.20
19050;DHT22;9657;45.940;12.840;2023-02-01T12:54:19;9.60;73.10
19050;DHT22;9657;45.940;12.840;2023-02-01T12:56:51;9.60;73.20
19050;DHT22;9657;45.940;12.840;2023-02-01T12:59:26;9.70;73.20
19050;DHT22;9657;45.940;12.840;2023-02-01T13:01:59;9.70;73.30
19050;DHT22;9657;45.940;12.840;2023-02-01T13:04:33;9.70;73.20
19050;DHT22;9657;45.940;12.840;2023-02-01T13:07:05;9.70;74.00
19050;DHT22;9657;45.940;12.840;2023-02-01T13:09:39;9.70;73.30
19050;DHT22;9657;45.940;12.840;2023-02-01T13:12:12;9.70;73.20
19050;DHT22;9657;45.940;12.840;2023-02-01T13:14:44;9.70;73.20
19050;DHT22;9657;45.940;12.840;2023-02-01T13:17:15;9.70;73.10
19050;DHT22;9657;45.940;12.840;2023-02-01T13:19:49;9.70;73.20
19050;DHT22;9657;45.940;12.840;2023-02-01T13:22:21;9.70;73.10
19050;DHT22;9657;45.940;12.840;2023-02-01T13:24:53;9.70;73.20
19050;DHT22;9657;45.940;12.840;2023-02-01T13:27:22;9.70;73.20
19050;DHT22;9657;45.940;12.840;2023-02-01T13:29:56;9.70;73.40
19050;DHT22;9657;45.940;12.840;2023-02-01T13:41:41;9.70;73.20
19050;DHT22;9657;45.940;12.840;2023-02-01T13:44:16;9.70;73.10
19050;DHT22;9657;45.940;12.840;2023-02-01T13:46:47;9.70;73.10
19050;DHT22;9657;45.940;12.840;2023-02-01T13:49:20;9.70;73.10
19050;DHT22;9657;45.940;12.840;2023-02-01T13:51:51;9.70;73.10
19050;DHT22;9657;45.940;12.840;2023-02-01T13:54:28;9.70;73.10
19050;DHT22;9657;45.940;12.840;2023-02-01T13:56:57;9.70;73.10
19050;DHT22;9657;45.940;12.840;2023-02-01T13:59:50;9.80;73.10
19050;DHT22;9657;45.940;12.840;2023-02-01T14:06:02;9.70;73.20
19050;DHT22;9657;45.940;12.840;2023-02-01T14:08:41;9.70;73.10
19050;DHT22;9657;45.940;12.840;2023-02-01T14:11:33;9.70;73.10
19050;DHT22;9657;45.940;12.840;2023-02-01T14:17:37;9.70;73.10
19050;DHT22;9657;45.940;12.840;2023-02-01T14:23:27;9.80;73.20
19050;DHT22;9657;45.940;12.840;2023-02-01T14:26:06;9.80;73.10
19050;DHT22;9657;45.940;12.840;2023-02-01T14:28:36;9.80;73.10
19050;DHT22;9657;45.940;12.840;2023-02-01T14:31:15;9.80;73.10
19050;DHT22;9657;45.940;12.840;2023-02-01T14:33:45;9.80;73.20
19050;DHT22;9657;45.940;12.840;2023-02-01T14:36:14;9.80;73.10
19050;DHT22;9657;45.940;12.840;2023-02-01T14:38:48;9.80;73.10
19050;DHT22;9657;45.940;12.840;2023-02-01T14:41:29;9.80;73.20
19050;DHT22;9657;45.940;12.840;2023-02-01T14:44:25;9.80;73.10
19050;DHT22;9657;45.940;12.840;2023-02-01T14:47:31;9.80;73.20
19050;DHT22;9657;45.940;12.840;2023-02-01T14:50:17;9.80;73.20
19050;DHT22;9657;45.940;12.840;2023-02-01T14:52:47;9.80;73.20
19050;DHT22;9657;45.940;12.840;2023-02-01T14:55:21;9.80;73.10
19050;DHT22;9657;45.940;12.840;2023-02-01T14:57:51;9.80;73.10
19050;DHT22;9657;45.940;12.840;2023-02-01T15:00:24;9.80;73.10
19050;DHT22;9657;45.940;12.840;2023-02-01T15:02:53;9.80;73.20
19050;DHT22;9657;45.940;12.840;2023-02-01T15:05:29;9.80;73.20
19050;DHT22;9657;45.940;12.840;2023-02-01T15:08:03;9.80;73.10
19050;DHT22;9657;45.940;12.840;2023-02-01T15:10:39;9.80;73.20
19050;DHT22;9657;45.940;12.840;2023-02-01T15:13:19;9.80;73.20
19050;DHT22;9657;45.940;12.840;2023-02-01T15:16:00;9.80;73.20
19050;DHT22;9657;45.940;12.840;2023-02-01T15:18:27;9.80;73.20
19050;DHT22;9657;45.940;12.840;2023-02-01T15:21:00;9.80;73.20
19050;DHT22;9657;45.940;12.840;2023-02-01T15:23:28;9.80;73.20
19050;DHT22;9657;45.940;12.840;2023-02-01T15:25:56;9.80;73.20
19050;DHT22;9657;45.940;12.840;2023-02-01T15:28:23;9.80;73.20
19050;DHT22;9657;45.940;12.840;2023-02-01T15:30:56;9.80;73.20
19050;DHT22;9657;45.940;12.840;2023-02-01T15:33:23;9.80;73.20
19050;DHT22;9657;45.940;12.840;2023-02-01T15:35:52;9.80;73.30
19050;DHT22;9657;45.940;12.840;2023-02-01T15:38:33;9.80;73.30
19050;DHT22;9657;45.940;12.840;2023-02-01T15:41:04;9.80;73.30
19050;DHT22;9657;45.940;12.840;2023-02-01T15:43:33;9.80;73.20
19050;DHT22;9657;45.940;12.840;2023-02-01T15:46:02;9.80;73.30
19050;DHT22;9657;45.940;12.840;2023-02-01T15:48:35;9.80;73.30
19050;DHT22;9657;45.940;12.840;2023-02-01T15:51:04;9.80;73.30
19050;DHT22;9657;45.940;12.840;2023-02-01T15:53:32;9.80;73.30
19050;DHT22;9657;45.940;12.840;2023-02-01T15:56:01;9.80;73.30
19050;DHT22;9657;45.940;12.840;2023-02-01T15:58:30;9.80;73.30
19050;DHT22;9657;45.940;12.840;2023-02-01T16:01:00;9.80;73.30
19050;DHT22;9657;45.940;12.840;2023-02-01T16:03:35;9.80;73.30
19050;DHT22;9657;45.940;12.840;2023-02-01T16:06:04;9.80;73.30
19050;DHT22;9657;45.940;12.840;2023-02-01T16:08:34;9.80;73.30
19050;DHT22;9657;45.940;12.840;2023-02-01T16:11:22;9.80;73.30
19050;DHT22;9657;45.940;12.840;2023-02-01T16:13:49;9.80;73.40
19050;DHT22;9657;45.940;12.840;2023-02-01T16:16:16;9.80;73.30
19050;DHT22;9657;45.940;12.840;2023-02-01T16:18:43;9.80;73.40
19050;DHT22;9657;45.940;12.840;2023-02-01T16:21:11;9.80;73.40
19050;DHT22;9657;45.940;12.840;2023-02-01T16:23:39;9.80;73.40
19050;DHT22;9657;45.940;12.840;2023-02-01T16:26:06;9.80;73.40
19050;DHT22;9657;45.940;12.840;2023-02-01T16:28:33;9.80;73.40
19050;DHT22;9657;45.940;12.840;2023-02-01T16:31:01;9.80;73.40
19050;DHT22;9657;45.940;12.840;2023-02-01T16:33:28;9.80;73.40
19050;DHT22;9657;45.940;12.840;2023-02-01T16:35:56;9.80;73.40
19050;DHT22;9657;45.940;12.840;2023-02-01T16:38:25;9.80;73.40
19050;DHT22;9657;45.940;12.840;2023-02-01T16:40:54;9.80;73.50
19050;DHT22;9657;45.940;12.840;2023-02-01T16:43:24;9.70;73.40
19050;DHT22;9657;45.940;12.840;2023-02-01T16:45:54;9.80;73.50